Hauptseite
METAR-TAF:

METAR-TAF

Flughäfen :

Flughafen Sandnessjøen. Stokka

Sandnessjøen, Norwegen

Breite: 65-58N, Länge: 012-28E, Höhe: 1 m

Beobachtung

Neuester Wetterbericht von vor 32 Minuten, um 17:20 UTC
Wind 2 kt aus unterschiedlichen Richtungen
Temperatur 17°C
Luftfeuchtigkeit 59%
Luftdruck 1018 hPa
Sichtweite 10 km oder mehr
keine Wolken unter 1500 m und keine Kumulonimbus oder Gewitterwolken

METAR: ENST 231720Z VRB02KT CAVOK 17/09 Q1018 RMK WIND 300FT 30004KT

Zeit: 19:52 (17:52 UTC)

Prognose

Neuester Wetterbericht von vor 1 Stunde und 9 Minuten, um 16:43 UTC
Gültige Prognose vom 23 um 16 UTC bis 23 um 21 UTC
Wind 6 kt aus Nord/Nordost
Sichtweite 10 km oder mehr
keine Wolken unter 1500 m und keine Kumulonimbus oder Gewitterwolken

TAF: ENST 231643Z 2316/2321 02006KT CAVOK

Wetterbeobachtungen und Prognosen von mehr als 4000 Flughäfen (METAR und TAF Bericht).

Die verfügbaren Stationen werden durch gelbe und rote Markierungen auf der Karte dargestellt.

Führen Sie die Maus auf sie, um den Namen der Station zu sehen.

Darauf klicken, um die Beobachtung von Wetterbeobachtungen und Prognosen zu sehen.

Um die Karte zu ändern : klicken Sie auf den grünen Tasten mit einem schwarzen Kreuz Zum Vergrößern, auf den grünen Button mit einem Gedankenstrich zu verkleinern, oder auf die grünen Pfeile für benachbarte Karten.


METAR-TAF: